Terminal Aerodrome Forecast
Issued by NWS Shreveport, LA

Home | Current Version | Previous Version | Text Only | Print | Product List | Glossary On
Versions: 1 2 3 4 5 6 7 8 9 10 11 12 13 14
000
FTUS44 KSHV 281700
TAFGGG
TAF
KGGG 281720Z 2818/2918 35006KT P6SM SCT050 BKN100 BKN250
     FM282000 01008KT P6SM SCT050 SCT100 SCT250
     FM290000 02007KT P6SM SCT250=

USA.gov is the U.S. government's official web portal to all federal, state and local government web resources and services.